Anza Borrego Desert State Park, California Weather observations

Data are for 10 minute period ending at time listed.
 Day   Time   Solar   Ave.   Ave.  Ave.  Vector  Max.   Baro.   Total    
  of    of     Rad.   Air    Rel.  Wind   Wind   Wind  Press.  Precip.   
Year   Day            Temp.  Hum.  Speed  Dir.   Gust                    
2017   (PST)  Kw/m2    F      %     mph   deg.    mph    mb.     in.     
-------------------------------------------------------------------------
 203   18:20   0.03  104.4    20    3.5   119     6.4   976.4    0.00 
 203   18:30   0.03  104.1    20    4.9   122     7.5   976.5    0.00 
 203   18:40   0.01  103.7    21    5.3   107     7.7   976.6    0.00 
 203   18:50   0.00  103.4    21    5.1   108     7.1   976.7    0.00 
 203   19:00   0.00  103.0    21    4.2   111     6.0   976.8    0.00 
 203   19:10   0.00  102.6    21    4.7   103     6.6   977.0    0.00 
 203   19:20   0.00  102.3    22    3.2   115     6.8   977.1    0.00 
 203   19:30   0.00  101.7    22    3.4    46     7.2   977.2    0.00 
 203   19:40   0.00  100.5    23    3.9    50     6.8   977.3    0.00 
 203   19:50   0.00  100.2    23    2.2    90     4.4   977.4    0.00 
 203   20:00   0.00   99.8    24    3.7   110     7.3   977.3    0.00 
 203   20:10   0.00   99.6    23    4.1   133     6.1   977.3    0.00 
 203   20:20   0.00   98.1    25    2.4   221     4.5   977.3    0.00 
 203   20:30   0.00   96.7    26    2.8   245     4.3   977.3    0.00 
 203   20:40   0.00   96.3    26    3.3   261     4.3   977.2    0.00 
 203   20:50   0.00   97.1    26    2.1   272     4.8   977.2    0.00 
 203   21:00   0.00   97.9    25    1.7    59     5.1   977.3    0.00 
 203   21:10   0.00   98.9    24    5.3   316     8.9   977.5    0.00 
 203   21:20   0.00   99.1    23    5.7   306     9.6   977.6    0.00 
 203   21:30   0.00   98.2    24    4.1   299    10.7   977.6    0.00 
 203   21:40   0.00   96.7    25    3.4   302     8.3   977.6    0.00 
 203   21:50   0.00   96.4    26    4.6     4     6.7   977.7    0.00 
 203   22:00   0.00   95.6    28    5.3    84     8.6   977.7    0.00 
 203   22:10   0.00   95.3    28    2.1   278     3.2   977.8    0.00 
 203   22:20   0.00   94.0    29    3.3   256     4.3   977.8    0.00 
 203   22:30   0.00   94.4    28    2.5   256     4.4   977.7    0.00 
 203   22:40   0.00   93.2    29    5.3   270     6.9   977.6    0.00 
 203   22:50   0.00   93.2    28    3.4   245     5.8   977.6    0.00 
 203   23:00   0.00   92.4    29    3.5   319     6.5   977.6    0.00 
 203   23:10   0.00   91.9    30    5.4    17     7.5   977.7    0.00 
 203   23:20   0.00   91.3    32    2.0    35     4.6   977.7    0.00 
 203   23:30   0.00   90.2    32    3.4   208     6.0   977.7    0.00 
 203   23:40   0.00   90.4    32    5.3   243     7.0   977.7    0.00 
 203   23:50   0.00   91.1    32    5.5   233     6.9   977.5    0.00 
 204    0:00   0.00   90.6    32    4.8   221     6.6   977.5    0.00 
 204    0:10   0.00   90.2    32    4.4   220     5.6   977.4    0.00 
 204    0:20   0.00   90.2    32    5.3   212     6.7   977.2    0.00 
 204    0:30   0.00   90.6    32    3.3   223     5.9   977.2    0.00 
 204    0:40   0.00   90.7    35    4.5   171     8.8   977.1    0.00 
 204    0:50   0.00   90.0    44    6.6   164     9.7   977.1    0.00 
 204    1:00   0.00   89.2    47    8.2   167    12.1   977.1    0.00 
 204    1:10   0.00   89.3    45    7.9   168    11.1   977.0    0.00 
 204    1:20   0.00   89.3    44    6.6   175     9.7   977.0    0.00 
 204    1:30   0.00   89.0    44    5.9   148     7.7   977.1    0.00 
 204    1:40   0.00   88.6    45    2.5   164     6.6   977.1    0.00 
 204    1:50   0.00   88.2    45    1.3   332     2.9   977.0    0.00 
 204    2:00   0.00   87.6    46    2.6    41     5.6   976.8    0.00 
 204    2:10   0.00   87.2    47    3.6    84     6.4   976.8    0.00 
 204    2:20   0.00   86.3    48    1.9   249     3.9   976.6    0.00 
 204    2:30   0.00   85.2    49    1.7   117     3.7   976.6    0.00 
 204    2:40   0.00   84.7    51    2.2   137     3.6   976.7    0.00 
 204    2:50   0.00   83.6    50    1.2   298     2.2   976.7    0.00 
 204    3:00   0.00   83.7    52    2.8   291     3.7   976.7    0.00 
 204    3:10   0.00   83.3    53    1.4     9     2.2   976.8    0.00 
 204    3:20   0.00   83.3    52    2.1   192     2.7   976.8    0.00 
 204    3:30   0.00   84.1    53    4.1   183     6.3   976.9    0.00 
 204    3:40   0.00   85.3    54    5.5   150     7.7   977.1    0.00 
 204    3:50   0.00   85.4    54    1.7   105     5.5   977.2    0.00 
 204    4:00   0.00   84.9    55    1.8   354     4.0   977.3    0.00 
 204    4:10   0.00   83.9    56    2.7   340     3.8   977.4    0.00 
 204    4:20   0.00   83.0    56    2.5   329     4.0   977.5    0.00 
 204    4:30   0.00   83.1    56    1.9   314     3.9   977.5    0.00 
 204    4:40   0.00   82.4    56    2.2   117     4.5   977.6    0.00 
 204    4:50   0.00   82.5    57    1.8   124     3.9   977.6    0.00 
 204    5:00   0.00   81.8    57    0.6   175     2.3   977.7    0.00 
 204    5:10   0.00   82.1    58    1.0   130     2.6   977.8    0.00 
 204    5:20   0.03   82.8    58    1.2   177     3.3   977.9    0.00 
 204    5:30   0.06   84.4    56    2.3   176     4.8   978.1    0.00 
 204    5:40   0.08   86.6    53    3.0   181     5.0   978.1    0.00 
 204    5:50   0.10   87.1    53    2.6   125     4.0   978.1    0.00 
 204    6:00   0.12   87.7    52    2.6    88     3.9   978.2    0.00 
 204    6:10   0.15   88.6    50    2.3    92     3.7   978.3    0.00 
 204    6:20   0.18   89.1    50    3.2   102     5.3   978.4    0.00 
 204    6:30   0.21   89.3    50    2.8   132     5.0   978.4    0.00 
 204    6:40   0.24   90.1    48    3.4   103     6.6   978.6    0.00 
 204    6:50   0.22   89.7    49    3.1    88     5.7   978.8    0.00 
 204    7:00   0.29   90.3    48    3.0   133     5.4   978.8    0.00 
 204    7:10   0.33   91.7    46    2.3   146     5.6   978.8    0.00 
 204    7:20   0.37   92.0    45    2.9   130     5.5   979.0    0.00 
 204    7:30   0.41   92.5    44    3.7   107     6.5   979.0    0.00 
 204    7:40   0.44   92.2    45    4.5    83     6.9   979.2    0.00 
 204    7:50   0.47   91.8    47    4.6    92     8.2   979.3    0.00 
 204    8:00   0.51   92.6    46    3.7    95     6.8   979.3    0.00 
 204    8:10   0.56   93.6    44    4.0    78     7.2   979.3    0.00 
 204    8:20   0.59   93.8    44    5.0   100     8.3   979.5    0.00 
 204    8:30   0.61   94.2    43    3.6    79     7.0   979.4    0.00 
 204    8:40   0.62   94.5    42    6.0   126    11.8   979.4    0.00 
 204    8:50   0.65   94.5    41    6.0   126    11.1   979.4    0.00 
 204    9:00   0.68   94.6    41    7.0   108    11.3   979.5    0.00 
 204    9:10   0.70   94.8    41    7.7   116    13.4   979.5    0.00 
 204    9:20   0.73   95.6    40    6.2   103    11.1   979.5    0.00 
 204    9:30   0.76   96.6    38    4.6   142     9.7   979.6    0.00 
 204    9:40   0.77   97.2    37    5.8    99     9.6   979.6    0.00 
 204    9:50   0.79   97.5    37    6.0   108    10.1   979.6    0.00 
 204   10:00   0.81   97.5    37    7.1   122    12.8   979.5    0.00 
 204   10:10   0.83   97.8    36    7.7   126    12.9   979.5    0.00 
 204   10:20   0.85   98.4    34    7.2   116    14.2   979.6    0.00 
 204   10:30   0.86   99.2    34    6.7   106    10.4   979.6    0.00 
 204   10:40   0.89   99.0    33    7.8    79    12.8   979.6    0.00 
 204   10:50   0.89  100.0    32    7.7   135    12.1   979.5    0.00 
 204   11:00   0.90   99.8    32    5.6   143    10.2   979.4    0.00 
 204   11:10   0.91  100.4    32    6.8   124    11.9   979.3    0.00 
 204   11:20   0.91  101.1    31    5.5   123    13.5   979.1    0.00 
 204   11:30   0.92  100.2    31    8.4   118    13.4   979.1    0.00 
 204   11:40   0.93  101.2    30    5.9   139    12.3   979.0    0.00 
 204   11:50   0.94  101.9    29    7.2    97    11.4   978.9    0.00 
 204   12:00   0.93  102.1    29    3.7    99     9.8   978.8    0.00 
 204   12:10   0.92  103.0    29    6.8   116    11.0   978.6    0.00 
 204   12:20   0.91  101.8    31    8.6   100    17.8   978.5    0.00 
 204   12:30   0.91  102.1    30    5.0   136    10.8   978.4    0.00 
 204   12:40   0.93  103.6    29    6.3   114    10.9   978.2    0.00 
 204   12:50   0.91  104.1    28    5.9   124    12.3   978.0    0.00 
 204   13:00   0.89  103.5    28    4.7   120    11.0   977.9    0.00 
 204   13:10   0.88  103.7    27    5.0    79     9.2   977.7    0.00 
 204   13:20   0.87  104.6    27    4.3    92     9.7   977.6    0.00 
 204   13:30   0.86  103.9    27    4.9    79     9.9   977.4    0.00 
 204   13:40   0.84  105.3    26    5.4   130    13.7   977.2    0.00 
 204   13:50   0.83  104.7    26    6.6   127    14.1   977.0    0.00 
 204   14:00   0.81  104.9    26    5.9    67    10.9   976.9    0.00 
 204   14:10   0.78  105.4    26    6.8    77    14.2   976.8    0.00 
 204   14:20   0.76  105.8    25    5.1   117     9.7   976.6    0.00 
 204   14:30   0.74  106.1    25    4.5    84    11.1   976.3    0.00 
 204   14:40   0.72  106.6    25    3.7   164    10.4   976.0    0.00 
 204   14:50   0.70  107.1    24    4.7   124     9.2   975.9    0.00 
 204   15:00   0.67  106.7    25    4.6   137     9.9   975.6    0.00 
 204   15:10   0.64  106.9    25    3.3   106     7.2   975.5    0.00 
 204   15:20   0.62  107.6    24    2.2   163     6.4   975.3    0.00 
 204   15:30   0.59  106.7    25    5.0   104    10.6   975.2    0.00 
 204   15:40   0.56  107.2    25    5.4   112    10.9   975.1    0.00 
 204   15:50   0.53  107.8    24    4.5    87     9.4   975.0    0.00 
 204   16:00   0.50  107.7    24    4.4    79     8.9   974.9    0.00 
 204   16:10   0.46  107.4    24    4.9   100     8.3   974.8    0.00 
 204   16:20   0.43  107.2    24    5.7   134    11.2   974.6    0.00 
 204   16:30   0.39  107.1    25    3.8   148     9.3   974.6    0.00 
 204   16:40   0.35  106.5    26    6.4   114     9.9   974.6    0.00 
 204   16:50   0.31  106.1    26    6.9   103     9.7   974.5    0.00 
 204   17:00   0.26  105.5    27    7.4   105    14.7   974.5    0.00 
 204   17:10   0.26  105.7    27    8.0   110    12.3   974.5    0.00 
 204   17:20   0.23  106.1    27    4.3   124    10.4   974.6    0.00 
 204   17:30   0.19  106.2    27    5.7    85    11.0   974.8    0.00 
 204   17:40   0.13  104.7    28    6.4    42    11.0   975.0    0.00 
 204   17:50   0.07  103.2    29    5.4    82    11.2   975.1    0.00 
 204   18:00   0.06  102.3    30    8.5    91    14.2   975.2    0.00 
 204   18:10   0.05  101.4    31    9.8   101    14.2   975.4    0.00 

Return to Anza Borrego Desert State Park graphs page.


Western Regional Climate Center,wrcc@dri.edu